createdAt,value
2017-01-29T00:00:56.896Z,0
2017-01-29T00:01:42.381Z,0
2017-01-29T00:02:42.389Z,0
2017-01-29T00:03:42.018Z,0
2017-01-29T00:04:42.422Z,0
2017-01-29T00:05:42.040Z,0
2017-01-29T00:06:42.437Z,0
2017-01-29T00:07:42.450Z,0
2017-01-29T00:08:42.464Z,0
2017-01-29T00:09:42.085Z,0
2017-01-29T00:10:42.098Z,0
2017-01-29T00:11:42.494Z,0
2017-01-29T00:12:42.505Z,0
2017-01-29T00:13:42.517Z,0
2017-01-29T00:14:57.058Z,0
2017-01-29T00:15:42.547Z,0
2017-01-29T00:16:57.080Z,0
2017-01-29T00:18:42.575Z,0
2017-01-29T00:19:42.590Z,0
2017-01-29T00:20:42.599Z,0
2017-01-29T00:21:42.608Z,0
2017-01-29T00:22:42.624Z,0
2017-01-29T00:23:42.632Z,0
2017-01-29T00:24:42.642Z,0
2017-01-29T00:25:42.671Z,0
2017-01-29T00:26:42.666Z,0
2017-01-29T00:27:42.679Z,0
2017-01-29T00:29:57.231Z,0
2017-01-29T00:30:42.717Z,0
2017-01-29T00:32:57.264Z,0
2017-01-29T00:33:42.751Z,0
2017-01-29T00:34:42.759Z,0
2017-01-29T00:35:42.381Z,0
2017-01-29T00:36:57.312Z,0
2017-01-29T00:37:42.792Z,0
2017-01-29T00:38:57.335Z,0
2017-01-29T00:39:42.814Z,0
2017-01-29T00:40:42.830Z,0
2017-01-29T00:41:42.843Z,0
2017-01-29T00:42:42.850Z,0
2017-01-29T00:43:42.884Z,0
2017-01-29T00:44:42.869Z,0
2017-01-29T00:45:42.884Z,0
2017-01-29T00:46:57.423Z,0
2017-01-29T00:47:42.909Z,0
2017-01-29T00:48:42.915Z,0
2017-01-29T00:49:42.936Z,0
2017-01-29T00:50:42.943Z,0
2017-01-29T00:51:42.951Z,0
2017-01-29T00:52:42.960Z,0
2017-01-29T00:53:42.971Z,0
2017-01-29T00:54:57.516Z,0
2017-01-29T00:55:43.004Z,0
2017-01-29T00:56:43.007Z,0
2017-01-29T00:57:43.022Z,0
2017-01-29T00:58:43.029Z,0
2017-01-29T00:59:43.041Z,0
2017-01-29T01:00:43.079Z,0
2017-01-29T01:01:43.063Z,0
2017-01-29T01:02:57.604Z,0
2017-01-29T01:03:43.086Z,0
2017-01-29T01:04:43.096Z,0
2017-01-29T01:05:43.110Z,0
2017-01-29T01:06:43.122Z,0
2017-01-29T01:07:43.137Z,0
2017-01-29T01:08:43.141Z,0
2017-01-29T01:09:43.156Z,0
2017-01-29T01:10:57.695Z,0
2017-01-29T01:11:43.175Z,0
2017-01-29T01:12:43.187Z,0
2017-01-29T01:13:43.203Z,0
2017-01-29T01:14:43.210Z,0
2017-01-29T01:15:43.223Z,0
2017-01-29T01:16:57.765Z,0
2017-01-29T01:17:43.250Z,0
2017-01-29T01:19:12.314Z,0
2017-01-29T01:19:43.309Z,0
2017-01-29T01:22:43.304Z,0
2017-01-29T01:23:43.315Z,0
2017-01-29T01:24:43.324Z,0
2017-01-29T01:25:43.370Z,0
2017-01-29T01:26:43.356Z,0
2017-01-29T01:27:57.886Z,0
2017-01-29T01:28:43.371Z,0
2017-01-29T01:29:43.381Z,0
2017-01-29T01:30:43.393Z,0
2017-01-29T01:31:43.402Z,0
2017-01-29T01:32:43.421Z,0
2017-01-29T01:33:43.524Z,0
2017-01-29T01:34:57.967Z,0
2017-01-29T01:35:43.448Z,0
2017-01-29T01:36:43.465Z,0
2017-01-29T01:37:43.472Z,0
2017-01-29T01:38:43.494Z,0
2017-01-29T01:39:43.494Z,0
2017-01-29T01:40:43.505Z,0
2017-01-29T01:41:43.521Z,0
2017-01-29T01:42:43.529Z,0
2017-01-29T01:43:43.543Z,0
2017-01-29T01:44:43.549Z,0
2017-01-29T01:45:43.561Z,0
2017-01-29T01:46:43.188Z,0
2017-01-29T01:47:43.585Z,0
2017-01-29T01:48:43.596Z,0
2017-01-29T01:49:57.753Z,0
2017-01-29T01:50:43.619Z,0
2017-01-29T01:51:43.630Z,0
2017-01-29T01:52:43.644Z,0
2017-01-29T01:53:43.654Z,0
2017-01-29T01:54:43.690Z,0
2017-01-29T01:55:43.679Z,0
2017-01-29T01:56:58.219Z,0
2017-01-29T01:57:58.229Z,0
2017-01-29T01:58:43.712Z,0
2017-01-29T01:59:43.720Z,0
2017-01-29T02:00:43.737Z,0
2017-01-29T02:01:43.745Z,0
2017-01-29T02:02:58.290Z,0
2017-01-29T02:03:43.766Z,0
2017-01-29T02:04:43.780Z,0
2017-01-29T02:05:58.320Z,0
2017-01-29T02:06:58.331Z,0
2017-01-29T02:07:43.823Z,0
2017-01-29T02:09:43.837Z,0
2017-01-29T02:10:43.848Z,0
2017-01-29T02:11:43.862Z,0
2017-01-29T02:12:43.869Z,0
2017-01-29T02:13:43.880Z,0
2017-01-29T02:14:58.422Z,0
2017-01-29T02:15:43.907Z,0
2017-01-29T02:16:43.916Z,0
2017-01-29T02:17:43.951Z,0
2017-01-29T02:18:43.551Z,0
2017-01-29T02:19:43.948Z,0
2017-01-29T02:20:43.961Z,0
2017-01-29T02:22:13.033Z,0
2017-01-29T02:22:43.983Z,0
2017-01-29T02:23:43.997Z,0
2017-01-29T02:25:44.022Z,0
2017-01-29T02:26:44.035Z,0
2017-01-29T02:27:58.604Z,0
2017-01-29T02:29:58.594Z,0
2017-01-29T02:30:44.077Z,0
2017-01-29T02:31:44.088Z,0
2017-01-29T02:32:44.102Z,0
2017-01-29T02:33:44.110Z,0
2017-01-29T02:34:44.120Z,0
2017-01-29T02:35:44.131Z,0
2017-01-29T02:36:44.143Z,0
2017-01-29T02:38:44.165Z,0
2017-01-29T02:39:58.706Z,0
2017-01-29T02:40:44.186Z,0
2017-01-29T02:41:44.198Z,0
2017-01-29T02:44:44.237Z,0
2017-01-29T02:45:44.243Z,0
2017-01-29T02:46:44.255Z,0
2017-01-29T02:47:44.271Z,0
2017-01-29T02:48:44.277Z,0
2017-01-29T02:49:44.290Z,0
2017-01-29T02:50:58.833Z,0
2017-01-29T02:51:44.312Z,0
2017-01-29T02:52:44.323Z,0
2017-01-29T02:54:13.394Z,0
2017-01-29T02:54:44.349Z,0
2017-01-29T02:55:43.973Z,0
2017-01-29T02:56:44.372Z,0
2017-01-29T02:57:44.382Z,0
2017-01-29T02:58:58.925Z,0
2017-01-29T02:59:44.402Z,0
2017-01-29T03:00:44.413Z,0
2017-01-29T03:01:44.429Z,0
2017-01-29T03:02:44.465Z,0
2017-01-29T03:03:44.446Z,0
2017-01-29T03:04:44.462Z,0
2017-01-29T03:05:44.469Z,0
2017-01-29T03:06:44.483Z,0
2017-01-29T03:07:44.524Z,0
2017-01-29T03:09:58.657Z,0
2017-01-29T03:10:59.053Z,0
2017-01-29T03:11:44.542Z,0
2017-01-29T03:12:44.586Z,0
2017-01-29T03:13:44.560Z,0
2017-01-29T03:14:44.188Z,0
2017-01-29T03:15:44.581Z,0
2017-01-29T03:16:44.593Z,0
2017-01-29T03:17:59.142Z,0
2017-01-29T03:18:44.645Z,0
2017-01-29T03:19:59.154Z,0
2017-01-29T03:20:44.673Z,0
2017-01-29T03:21:44.650Z,0
2017-01-29T03:22:44.661Z,0
2017-01-29T03:23:44.670Z,0
2017-01-29T03:25:13.743Z,0
2017-01-29T03:25:44.700Z,0
2017-01-29T03:26:44.720Z,0
2017-01-29T03:27:44.722Z,0
2017-01-29T03:28:44.728Z,0
2017-01-29T03:29:44.739Z,0
2017-01-29T03:30:44.749Z,0
2017-01-29T03:31:44.790Z,0
2017-01-29T03:32:59.301Z,0
2017-01-29T03:33:44.784Z,0
2017-01-29T03:34:44.793Z,0
2017-01-29T03:35:59.341Z,0
2017-01-29T03:36:44.823Z,0
2017-01-29T03:37:44.869Z,0
2017-01-29T03:38:44.840Z,0
2017-01-29T03:39:44.851Z,0
2017-01-29T03:40:59.393Z,0
2017-01-29T03:41:44.871Z,0
2017-01-29T03:42:59.413Z,0
2017-01-29T03:45:44.916Z,0
2017-01-29T03:46:44.930Z,0
2017-01-29T03:47:44.940Z,0
2017-01-29T03:48:59.484Z,0
2017-01-29T03:49:44.989Z,0
2017-01-29T03:50:44.591Z,0
2017-01-29T03:51:44.998Z,0
2017-01-29T03:53:45.016Z,0
2017-01-29T03:54:45.027Z,0
2017-01-29T03:55:45.035Z,0
2017-01-29T03:56:59.570Z,0
2017-01-29T03:57:59.583Z,0
2017-01-29T03:58:45.073Z,0
2017-01-29T03:59:45.075Z,0
2017-01-29T04:00:45.088Z,0
2017-01-29T04:02:45.108Z,0
2017-01-29T04:03:59.648Z,0
2017-01-29T04:04:45.161Z,0
2017-01-29T04:05:45.143Z,0
2017-01-29T04:06:45.152Z,0
2017-01-29T04:07:45.168Z,0
2017-01-29T04:08:45.176Z,0
2017-01-29T04:09:45.228Z,0
2017-01-29T04:10:45.195Z,0
2017-01-29T04:11:45.209Z,0
2017-01-29T04:12:59.752Z,0
2017-01-29T04:13:59.759Z,0
2017-01-29T04:14:45.245Z,0
2017-01-29T04:15:45.262Z,0
2017-01-29T04:16:45.265Z,0
2017-01-29T04:17:45.278Z,0
2017-01-29T04:18:45.288Z,0
2017-01-29T04:19:45.298Z,0
2017-01-29T04:20:45.317Z,0
2017-01-29T04:21:45.318Z,0
2017-01-29T04:22:45.331Z,0
2017-01-29T04:23:45.345Z,0
2017-01-29T04:24:45.384Z,0
2017-01-29T04:25:45.524Z,0
2017-01-29T04:26:45.376Z,0
2017-01-29T04:27:45.385Z,0
2017-01-29T04:28:59.931Z,0
2017-01-29T04:29:45.408Z,0
2017-01-29T04:32:45.454Z,0
2017-01-29T04:33:45.489Z,0
2017-01-29T04:34:45.469Z,0
2017-01-29T04:35:45.100Z,0
2017-01-29T04:36:45.102Z,0
2017-01-29T04:37:45.504Z,0
2017-01-29T04:38:45.509Z,0
2017-01-29T04:39:45.523Z,0
2017-01-29T04:40:45.530Z,0
2017-01-29T04:41:45.543Z,0
2017-01-29T04:42:45.554Z,0
2017-01-29T04:43:45.573Z,0
2017-01-29T04:45:00.106Z,0
2017-01-29T04:45:45.588Z,0
2017-01-29T04:47:00.127Z,0
2017-01-29T04:47:45.607Z,0
2017-01-29T04:49:00.064Z,0
2017-01-29T04:50:00.165Z,0
2017-01-29T04:50:45.648Z,0
2017-01-29T04:51:45.660Z,0
2017-01-29T04:53:00.194Z,0
2017-01-29T04:54:00.206Z,0
2017-01-29T04:54:45.727Z,0
2017-01-29T04:55:45.700Z,0
2017-01-29T04:56:45.712Z,0
2017-01-29T04:57:45.721Z,0
2017-01-29T04:58:45.739Z,0
2017-01-29T05:00:00.278Z,0
2017-01-29T05:01:00.285Z,0
2017-01-29T05:02:00.295Z,0
2017-01-29T05:03:00.305Z,0
2017-01-29T05:03:45.790Z,0
2017-01-29T05:04:45.802Z,0
2017-01-29T05:05:45.808Z,0
2017-01-29T05:06:45.827Z,0
2017-01-29T05:08:00.362Z,0
2017-01-29T05:08:45.842Z,0
2017-01-29T05:09:45.857Z,0
2017-01-29T05:10:45.875Z,0
2017-01-29T05:11:45.879Z,0
2017-01-29T05:12:45.887Z,0
2017-01-29T05:13:45.899Z,0
2017-01-29T05:14:45.911Z,0
2017-01-29T05:15:45.960Z,0
2017-01-29T05:16:45.934Z,0
2017-01-29T05:17:45.948Z,0
2017-01-29T05:19:45.967Z,0
2017-01-29T05:20:45.977Z,0
2017-01-29T05:21:45.987Z,0
2017-01-29T05:22:46.178Z,0
2017-01-29T05:23:46.012Z,0
2017-01-29T05:24:46.041Z,0
2017-01-29T05:25:46.043Z,0
2017-01-29T05:26:46.043Z,0
2017-01-29T05:27:46.077Z,0
2017-01-29T05:28:46.071Z,0
2017-01-29T05:29:46.082Z,0
2017-01-29T05:30:46.086Z,0
2017-01-29T05:32:15.162Z,0
2017-01-29T05:32:46.111Z,0
2017-01-29T05:33:46.130Z,0
2017-01-29T05:34:46.134Z,0
2017-01-29T05:35:45.760Z,0
2017-01-29T05:36:46.158Z,0
2017-01-29T05:37:46.217Z,0
2017-01-29T05:38:46.178Z,0
2017-01-29T05:39:46.186Z,0
2017-01-29T05:41:00.729Z,0
2017-01-29T05:41:46.237Z,0
2017-01-29T05:42:46.295Z,0
2017-01-29T05:43:46.233Z,0
2017-01-29T05:44:46.244Z,0
2017-01-29T05:45:46.256Z,0
2017-01-29T05:46:46.280Z,0
2017-01-29T05:48:00.806Z,0
2017-01-29T05:48:45.901Z,0
2017-01-29T05:49:46.307Z,0
2017-01-29T05:50:46.315Z,0
2017-01-29T05:51:46.321Z,0
2017-01-29T05:52:46.329Z,0
2017-01-29T05:53:46.345Z,0
2017-01-29T05:54:46.356Z,0
2017-01-29T05:56:00.903Z,0
2017-01-29T05:57:00.905Z,0
2017-01-29T05:57:46.385Z,0
2017-01-29T05:58:46.407Z,0
2017-01-29T05:59:46.413Z,0
2017-01-29T06:00:46.421Z,0
2017-01-29T06:01:46.430Z,0
2017-01-29T06:02:46.443Z,0
2017-01-29T06:04:15.513Z,0
2017-01-29T06:04:46.464Z,0
2017-01-29T06:05:46.478Z,0
2017-01-29T06:06:46.490Z,0
2017-01-29T06:07:46.496Z,0
2017-01-29T06:08:46.510Z,4
2017-01-29T06:09:46.524Z,4
2017-01-29T06:10:46.544Z,0
2017-01-29T06:12:01.070Z,0
2017-01-29T06:12:46.550Z,4
2017-01-29T06:13:46.180Z,0
2017-01-29T06:14:46.575Z,4
2017-01-29T06:15:46.584Z,0
2017-01-29T06:16:46.595Z,4
2017-01-29T06:17:46.613Z,4
2017-01-29T06:18:46.655Z,8
2017-01-29T06:20:01.158Z,4
2017-01-29T06:21:01.174Z,8
2017-01-29T06:21:46.653Z,8
2017-01-29T06:22:46.670Z,8
2017-01-29T06:23:46.674Z,12
2017-01-29T06:24:46.725Z,16
2017-01-29T06:25:46.697Z,16
2017-01-29T06:27:01.235Z,20
2017-01-29T06:28:01.250Z,24
2017-01-29T06:28:46.726Z,28
2017-01-29T06:30:00.882Z,36
2017-01-29T06:30:46.749Z,36
2017-01-29T06:31:46.837Z,44
2017-01-29T06:32:46.770Z,52
2017-01-29T06:33:46.781Z,60
2017-01-29T06:35:01.323Z,68
2017-01-29T06:35:46.813Z,76
2017-01-29T06:36:46.813Z,84
2017-01-29T06:37:46.823Z,96
2017-01-29T06:38:46.650Z,108
2017-01-29T06:39:46.847Z,120
2017-01-29T06:40:46.859Z,132
2017-01-29T06:41:47.170Z,148
2017-01-29T06:42:46.879Z,164
2017-01-29T06:44:46.906Z,200
2017-01-29T06:45:46.909Z,216
2017-01-29T06:46:46.535Z,236
2017-01-29T06:47:46.930Z,260
2017-01-29T06:48:46.949Z,284
2017-01-29T06:50:01.485Z,316
2017-01-29T06:50:46.966Z,332
2017-01-29T06:51:46.975Z,360
2017-01-29T06:52:46.627Z,388
2017-01-29T06:53:46.608Z,416
2017-01-29T06:54:46.626Z,448
2017-01-29T06:55:47.018Z,480
2017-01-29T06:56:47.028Z,512
2017-01-29T06:57:47.041Z,548
2017-01-29T06:58:46.666Z,584
2017-01-29T06:59:47.061Z,620
2017-01-29T07:00:47.071Z,660
2017-01-29T07:01:46.696Z,700
2017-01-29T07:02:47.091Z,748
2017-01-29T07:03:47.105Z,792
2017-01-29T07:04:46.728Z,840
2017-01-29T07:06:01.658Z,900
2017-01-29T07:07:01.667Z,952
2017-01-29T07:08:01.678Z,1004
2017-01-29T07:09:46.783Z,1096
2017-01-29T07:10:47.206Z,1152
2017-01-29T07:11:47.194Z,1212
2017-01-29T07:12:47.202Z,1272
2017-01-29T07:13:47.211Z,1332
2017-01-29T07:14:47.221Z,1392
2017-01-29T07:16:01.766Z,1472
2017-01-29T07:16:47.246Z,1520
2017-01-29T07:18:01.795Z,1608
2017-01-29T07:18:47.269Z,1660
2017-01-29T07:19:47.281Z,1732
2017-01-29T07:20:47.290Z,1804
2017-01-29T07:21:47.316Z,1876
2017-01-29T07:23:01.845Z,1964
2017-01-29T07:23:47.329Z,2020
2017-01-29T07:24:47.409Z,2088
2017-01-29T07:25:47.341Z,2152
2017-01-29T07:26:47.355Z,2196
2017-01-29T07:27:47.366Z,2252
2017-01-29T07:28:47.379Z,2320
2017-01-29T07:30:01.923Z,2416
2017-01-29T07:30:47.403Z,2468
2017-01-29T07:31:47.422Z,2544
2017-01-29T07:32:47.426Z,2620
2017-01-29T07:33:47.437Z,2688
2017-01-29T07:34:47.460Z,2768
2017-01-29T07:35:47.457Z,2852
2017-01-29T07:37:02.002Z,2944
2017-01-29T07:37:47.483Z,3004
2017-01-29T07:39:02.021Z,3092
2017-01-29T07:39:47.504Z,3140
2017-01-29T07:41:02.044Z,3228
2017-01-29T07:41:47.528Z,3284
2017-01-29T07:42:47.540Z,3348
2017-01-29T07:43:47.551Z,3420
2017-01-29T07:44:47.559Z,3480
2017-01-29T07:46:02.108Z,3512
2017-01-29T07:46:47.635Z,3540
2017-01-29T07:47:47.598Z,3600
2017-01-29T07:48:47.219Z,3908
2017-01-29T07:49:47.618Z,4536
2017-01-29T07:50:47.631Z,5552
2017-01-29T07:51:47.640Z,6488
2017-01-29T07:52:47.649Z,7036
2017-01-29T07:53:47.663Z,7292
2017-01-29T07:55:02.206Z,7480
2017-01-29T07:55:47.886Z,7480
2017-01-29T07:56:47.700Z,7380
2017-01-29T07:57:47.714Z,7292
2017-01-29T07:59:47.734Z,7152
2017-01-29T08:00:47.750Z,7152
2017-01-29T08:01:47.758Z,6312
2017-01-29T08:02:47.779Z,5716
2017-01-29T08:03:47.781Z,6168
2017-01-29T08:05:02.333Z,6968
2017-01-29T08:05:47.812Z,7316
2017-01-29T08:06:47.817Z,7460
2017-01-29T08:07:47.837Z,7156
2017-01-29T08:08:47.841Z,7320
2017-01-29T08:10:02.393Z,7748
2017-01-29T08:10:47.870Z,7820
2017-01-29T08:11:47.884Z,7892
2017-01-29T08:13:47.905Z,7364
2017-01-29T08:14:47.924Z,6152
2017-01-29T08:15:47.934Z,5304
2017-01-29T08:16:47.952Z,6124
2017-01-29T08:17:47.954Z,6596
2017-01-29T08:19:02.501Z,5588
2017-01-29T08:19:47.982Z,5236
2017-01-29T08:20:47.994Z,5240
2017-01-29T08:21:48.008Z,5288
2017-01-29T08:22:48.027Z,5256
2017-01-29T08:23:48.034Z,5288
2017-01-29T08:24:48.069Z,6124
2017-01-29T08:26:02.589Z,7824
2017-01-29T08:26:48.076Z,7944
2017-01-29T08:28:02.613Z,7560
2017-01-29T08:28:48.098Z,7656
2017-01-29T08:29:48.106Z,7512
2017-01-29T08:30:48.121Z,7560
2017-01-29T08:31:48.135Z,7328
2017-01-29T08:32:48.146Z,7268
2017-01-29T08:33:48.186Z,6984
2017-01-29T08:34:48.174Z,6960
2017-01-29T08:35:48.191Z,7180
2017-01-29T08:36:48.199Z,7340
2017-01-29T08:37:48.209Z,7356
2017-01-29T08:38:48.225Z,7292
2017-01-29T08:39:48.237Z,7212
2017-01-29T08:40:48.250Z,7112
2017-01-29T08:42:02.408Z,7204
2017-01-29T08:42:48.277Z,7400
2017-01-29T08:43:48.296Z,7448
2017-01-29T08:46:48.333Z,7444
2017-01-29T08:47:48.346Z,7472
2017-01-29T08:48:48.354Z,7432
2017-01-29T08:49:48.375Z,7028
2017-01-29T08:50:48.384Z,7040
2017-01-29T08:52:02.540Z,7152
2017-01-29T08:52:48.409Z,6852
2017-01-29T08:53:48.422Z,6744
2017-01-29T08:54:48.438Z,7320
2017-01-29T08:55:48.448Z,7512
2017-01-29T08:56:48.472Z,7252
2017-01-29T08:58:02.624Z,7564
2017-01-29T08:58:48.491Z,7516
2017-01-29T09:00:03.042Z,7556
2017-01-29T09:00:48.521Z,7116
2017-01-29T09:01:48.532Z,6856
2017-01-29T09:02:48.548Z,7856
2017-01-29T09:03:48.563Z,8000
2017-01-29T09:04:48.573Z,7972
2017-01-29T09:06:03.121Z,7596
2017-01-29T09:06:48.602Z,7844
2017-01-29T09:07:48.618Z,8100
2017-01-29T09:08:48.634Z,8056
2017-01-29T09:09:48.645Z,8052
2017-01-29T09:10:48.662Z,7464
2017-01-29T09:11:48.671Z,7624
2017-01-29T09:12:48.302Z,7740
2017-01-29T09:14:03.231Z,7740
2017-01-29T09:15:03.257Z,7832
2017-01-29T09:15:48.728Z,7916
2017-01-29T09:17:03.271Z,7876
2017-01-29T09:17:48.756Z,7776
2017-01-29T09:18:48.385Z,7780
2017-01-29T09:19:48.787Z,7864
2017-01-29T09:20:48.800Z,7496
2017-01-29T09:21:48.816Z,7388
2017-01-29T09:23:02.974Z,7288
2017-01-29T09:23:48.842Z,6844
2017-01-29T09:24:48.856Z,7140
2017-01-29T09:25:48.870Z,6968
2017-01-29T09:26:48.887Z,7332
2017-01-29T09:27:48.903Z,7440
2017-01-29T09:28:48.917Z,7660
2017-01-29T09:30:03.462Z,7324
2017-01-29T09:30:48.951Z,7612
2017-01-29T09:31:48.964Z,7576
2017-01-29T09:33:03.126Z,7496
2017-01-29T09:33:48.990Z,7696
2017-01-29T09:34:49.006Z,7028
2017-01-29T09:35:49.037Z,7688
2017-01-29T09:37:03.567Z,7968
2017-01-29T09:37:49.055Z,8192
2017-01-29T09:38:49.094Z,8460
2017-01-29T09:39:48.693Z,8348
2017-01-29T09:40:49.099Z,8408
2017-01-29T09:41:48.724Z,8244
2017-01-29T09:42:48.743Z,8020
2017-01-29T09:43:49.144Z,7796
2017-01-29T09:45:03.692Z,8060
2017-01-29T09:45:49.172Z,8020
2017-01-29T09:46:49.186Z,7428
2017-01-29T09:48:48.831Z,8132
2017-01-29T09:49:49.233Z,7888
2017-01-29T09:50:48.864Z,8044
2017-01-29T09:51:48.880Z,7960
2017-01-29T09:52:49.280Z,7992
2017-01-29T09:54:03.825Z,7872
2017-01-29T09:54:49.317Z,7448
2017-01-29T09:55:49.325Z,7664
2017-01-29T09:56:48.965Z,8004
2017-01-29T09:57:49.359Z,7980
2017-01-29T09:58:49.374Z,8072
2017-01-29T10:01:03.937Z,7976
2017-01-29T10:02:03.954Z,7952
2017-01-29T10:03:03.967Z,8176
2017-01-29T10:03:49.453Z,8216
2017-01-29T10:04:49.470Z,8272
2017-01-29T10:06:49.504Z,8128
2017-01-29T10:08:04.052Z,7808
2017-01-29T10:08:49.534Z,7696
2017-01-29T10:09:49.547Z,7692
2017-01-29T10:10:49.563Z,7436
2017-01-29T10:11:49.580Z,7504
2017-01-29T10:13:04.137Z,7460
2017-01-29T10:13:49.611Z,7460
2017-01-29T10:14:49.636Z,7428
2017-01-29T10:15:49.642Z,7504
2017-01-29T10:17:49.677Z,7408
2017-01-29T10:18:49.693Z,7400
2017-01-29T10:19:49.710Z,7412
2017-01-29T10:20:49.339Z,7192
2017-01-29T10:21:49.744Z,6948
2017-01-29T10:22:49.761Z,6688
2017-01-29T10:23:49.775Z,6480
2017-01-29T10:24:49.795Z,6260
2017-01-29T10:26:03.952Z,5996
2017-01-29T10:26:49.828Z,5852
2017-01-29T10:27:49.866Z,5672
2017-01-29T10:28:49.856Z,5472
2017-01-29T10:29:49.875Z,5336
2017-01-29T10:30:49.886Z,5160
2017-01-29T10:31:49.907Z,5052
2017-01-29T10:33:04.453Z,4920
2017-01-29T10:33:49.945Z,4844
2017-01-29T10:35:49.974Z,4668
2017-01-29T10:36:49.989Z,4596
2017-01-29T10:37:50.007Z,4516
2017-01-29T10:38:50.023Z,4448
2017-01-29T10:40:04.570Z,4424
2017-01-29T10:40:50.053Z,4392
2017-01-29T10:42:04.600Z,4328
2017-01-29T10:43:04.616Z,4320
2017-01-29T10:44:04.638Z,4296
2017-01-29T10:44:50.118Z,4296
2017-01-29T10:45:50.136Z,4276
2017-01-29T10:46:49.763Z,4276
2017-01-29T10:47:50.171Z,4236
2017-01-29T10:49:04.715Z,4244
2017-01-29T10:49:50.199Z,4232
2017-01-29T10:50:49.832Z,4228
2017-01-29T10:51:49.849Z,4232
2017-01-29T10:52:49.864Z,4212
2017-01-29T10:53:50.263Z,4212
2017-01-29T10:54:49.895Z,4196
2017-01-29T10:55:49.914Z,4196
2017-01-29T10:57:50.329Z,4172
2017-01-29T10:58:50.347Z,4160
2017-01-29T10:59:49.980Z,4160
2017-01-29T11:00:49.994Z,4168
2017-01-29T11:01:50.398Z,4156
2017-01-29T11:02:50.028Z,4156
2017-01-29T11:03:50.043Z,4136
2017-01-29T11:05:04.593Z,4144
2017-01-29T11:05:50.077Z,4148
2017-01-29T11:07:50.111Z,4132
2017-01-29T11:09:04.658Z,4124
2017-01-29T11:09:50.143Z,4124
2017-01-29T11:10:50.547Z,4124
2017-01-29T11:11:50.568Z,4116
2017-01-29T11:13:05.111Z,4116
2017-01-29T11:13:50.213Z,4116
2017-01-29T11:14:50.614Z,4104
2017-01-29T11:15:50.243Z,4104
2017-01-29T11:16:50.264Z,4108
2017-01-29T11:17:50.664Z,4104
2017-01-29T11:18:50.708Z,4092
2017-01-29T11:20:19.763Z,4100
2017-01-29T11:21:50.354Z,4100
2017-01-29T11:22:50.368Z,4108
2017-01-29T11:23:50.769Z,4100
2017-01-29T11:24:50.783Z,4084
2017-01-29T11:25:50.797Z,4084
2017-01-29T11:26:50.429Z,4084
2017-01-29T11:28:05.365Z,4072
2017-01-29T11:28:50.849Z,4072
2017-01-29T11:29:50.479Z,4016
2017-01-29T11:30:50.881Z,3992
2017-01-29T11:31:50.902Z,4032
2017-01-29T11:32:50.916Z,4052
2017-01-29T11:33:50.931Z,4056
2017-01-29T11:34:50.950Z,4044
2017-01-29T11:35:50.580Z,4028
2017-01-29T11:36:50.986Z,4016
2017-01-29T11:38:05.532Z,4032
2017-01-29T11:38:51.022Z,4020
2017-01-29T11:39:51.040Z,4008
2017-01-29T11:40:51.052Z,4004
2017-01-29T11:41:51.089Z,4032
2017-01-29T11:42:51.087Z,4012
2017-01-29T11:43:51.106Z,4008
2017-01-29T11:45:05.264Z,3992
2017-01-29T11:45:51.136Z,3972
2017-01-29T11:46:51.156Z,4004
2017-01-29T11:47:51.170Z,4008
2017-01-29T11:48:51.190Z,4008
2017-01-29T11:49:51.211Z,4004
2017-01-29T11:50:51.223Z,4008
2017-01-29T11:52:05.774Z,4012
2017-01-29T11:52:50.869Z,4016
2017-01-29T11:53:50.889Z,4012
2017-01-29T11:54:50.903Z,3972
2017-01-29T11:55:51.309Z,3964
2017-01-29T11:57:05.861Z,4028
2017-01-29T11:57:51.346Z,4032
2017-01-29T11:58:50.976Z,4032
2017-01-29T12:00:05.909Z,4048
2017-01-29T12:01:05.924Z,4056
2017-01-29T12:01:51.410Z,4064
2017-01-29T12:02:51.428Z,4068
2017-01-29T12:03:51.444Z,4052
2017-01-29T12:04:51.075Z,4080
2017-01-29T12:05:51.482Z,4084
2017-01-29T12:06:51.498Z,4092
2017-01-29T12:08:06.044Z,4100
2017-01-29T12:09:06.064Z,4088
2017-01-29T12:10:51.569Z,3884
2017-01-29T12:11:51.583Z,4068
2017-01-29T12:12:51.215Z,3936
2017-01-29T12:13:51.628Z,3872
2017-01-29T12:15:06.170Z,3920
2017-01-29T12:16:06.186Z,4096
2017-01-29T12:16:51.668Z,4092
2017-01-29T12:17:51.691Z,4092
2017-01-29T12:18:51.705Z,4060
2017-01-29T12:19:51.733Z,4044
2017-01-29T12:20:51.739Z,4044
2017-01-29T12:21:51.757Z,4060
2017-01-29T12:23:06.309Z,4072
2017-01-29T12:24:06.325Z,4076
2017-01-29T12:24:51.807Z,4064
2017-01-29T12:25:51.828Z,4052
2017-01-29T12:26:51.849Z,4008
2017-01-29T12:28:51.882Z,3928
2017-01-29T12:29:51.925Z,3976
2017-01-29T12:30:51.918Z,3968
2017-01-29T12:32:06.466Z,3968
2017-01-29T12:32:51.957Z,3968
2017-01-29T12:33:51.970Z,3952
2017-01-29T12:34:51.988Z,3964
2017-01-29T12:35:52.003Z,3980
2017-01-29T12:36:52.022Z,3968
2017-01-29T12:37:52.066Z,3944
2017-01-29T12:38:52.055Z,3928
2017-01-29T12:40:52.094Z,3932
2017-01-29T12:42:06.641Z,3912
2017-01-29T12:43:52.154Z,3904
2017-01-29T12:45:52.181Z,3912
2017-01-29T12:46:52.199Z,3924
2017-01-29T12:47:52.219Z,3916
2017-01-29T12:49:06.763Z,3896
2017-01-29T12:50:06.783Z,3892
2017-01-29T12:50:52.268Z,3876
2017-01-29T12:51:52.285Z,3888
2017-01-29T12:52:52.310Z,3812
2017-01-29T12:55:06.883Z,3776
2017-01-29T12:55:52.362Z,3964
2017-01-29T12:57:06.909Z,3944
2017-01-29T12:59:52.435Z,3260
2017-01-29T13:00:52.452Z,3172
2017-01-29T13:01:52.471Z,3140
2017-01-29T13:02:52.512Z,3112
2017-01-29T13:03:52.504Z,2884
2017-01-29T13:04:52.525Z,2844
2017-01-29T13:05:52.542Z,2716
2017-01-29T13:06:52.557Z,2704
2017-01-29T13:07:52.578Z,2608
2017-01-29T13:08:52.593Z,2740
2017-01-29T13:10:07.144Z,2748
2017-01-29T13:10:52.631Z,2800
2017-01-29T13:12:52.665Z,2740
2017-01-29T13:13:52.758Z,2704
2017-01-29T13:14:52.698Z,2608
2017-01-29T13:15:52.720Z,2612
2017-01-29T13:16:52.740Z,2620
2017-01-29T13:18:07.288Z,2640
2017-01-29T13:18:52.386Z,2712
2017-01-29T13:20:07.321Z,2672
2017-01-29T13:20:52.420Z,2660
2017-01-29T13:21:52.829Z,2600
2017-01-29T13:22:52.847Z,2740
2017-01-29T13:23:52.866Z,2756
2017-01-29T13:25:07.413Z,2800
2017-01-29T13:25:52.899Z,3004
2017-01-29T13:27:07.452Z,3116
2017-01-29T13:28:07.464Z,3088
2017-01-29T13:28:52.951Z,3164
2017-01-29T13:29:52.972Z,3316
2017-01-29T13:30:52.990Z,3344
2017-01-29T13:32:52.637Z,3500
2017-01-29T13:33:53.044Z,3500
2017-01-29T13:34:53.057Z,3524
2017-01-29T13:35:53.078Z,3604
2017-01-29T13:37:07.249Z,3400
2017-01-29T13:37:53.109Z,3308
2017-01-29T13:38:53.144Z,3336
2017-01-29T13:39:53.154Z,3304
2017-01-29T13:40:53.166Z,3356
2017-01-29T13:41:53.184Z,3300
2017-01-29T13:43:07.738Z,3172
2017-01-29T13:43:53.248Z,3240
2017-01-29T13:44:53.236Z,3188
2017-01-29T13:45:53.294Z,3284
2017-01-29T13:46:53.324Z,3428
2017-01-29T13:47:53.294Z,3588
2017-01-29T13:48:53.321Z,3596
2017-01-29T13:49:53.330Z,3472
2017-01-29T13:50:53.351Z,3516
2017-01-29T13:52:07.895Z,3436
2017-01-29T13:52:53.384Z,3352
2017-01-29T13:53:53.030Z,3256
2017-01-29T13:54:53.449Z,3252
2017-01-29T13:55:53.439Z,3256
2017-01-29T13:57:53.474Z,3284
2017-01-29T13:59:22.555Z,2900
2017-01-29T14:00:08.044Z,2964
2017-01-29T14:01:08.056Z,2732
2017-01-29T14:01:53.547Z,2844
2017-01-29T14:02:53.567Z,2568
2017-01-29T14:03:53.583Z,2480
2017-01-29T14:04:53.607Z,2416
2017-01-29T14:05:53.243Z,2368
2017-01-29T14:07:08.167Z,2316
2017-01-29T14:07:53.303Z,2296
2017-01-29T14:08:53.673Z,2272
2017-01-29T14:10:07.833Z,2248
2017-01-29T14:10:53.709Z,2224
2017-01-29T14:11:53.725Z,2208
2017-01-29T14:12:53.747Z,2196
2017-01-29T14:13:53.766Z,2180
2017-01-29T14:15:22.845Z,2152
2017-01-29T14:15:53.801Z,2140
2017-01-29T14:16:53.817Z,2124
2017-01-29T14:17:53.834Z,2104
2017-01-29T14:19:53.487Z,2028
2017-01-29T14:20:53.889Z,1976
2017-01-29T14:21:53.908Z,1924
2017-01-29T14:23:08.458Z,1856
2017-01-29T14:23:53.945Z,1824
2017-01-29T14:24:53.967Z,1780
2017-01-29T14:25:53.983Z,1736
2017-01-29T14:26:53.997Z,1700
2017-01-29T14:27:54.026Z,1668
2017-01-29T14:28:54.035Z,1648
2017-01-29T14:30:23.118Z,1632
2017-01-29T14:30:54.076Z,1632
2017-01-29T14:31:54.094Z,1628
2017-01-29T14:33:08.638Z,1616
2017-01-29T14:33:54.126Z,1600
2017-01-29T14:35:54.165Z,1548
2017-01-29T14:37:08.716Z,1516
2017-01-29T14:37:54.199Z,1496
2017-01-29T14:38:54.216Z,1460
2017-01-29T14:39:53.848Z,1432
2017-01-29T14:40:54.254Z,1408
2017-01-29T14:41:54.273Z,1404
2017-01-29T14:42:54.289Z,1388